Segundo, Colorado
Current Conditions -  °F | °C
As of 5:54 AM on Thursday 30 Oct 2014 (Local Time) from KTAD Reporting Station
Clear Clear  
Wind Chill: 27°   Ceiling: Unl
Heat Index: 34°   Visibility: 10mi
Dew Point: 17°   Wind: 8mph
Humidity: 50%   Direction: 280°W
Pressure: 30.32"   Gusts: NA
Location:  37.1661°N, 104.486°W
Report Text: KTAD 301154Z AUTO 28007KT 10SM CLR 01/M08 A3032 RMK AO2 SLP230 T00111083 10094 20011 51020
Loading
Personal Weather Stations






























Interactive Weather Map
Tropical Storm Tracking
New forecast layout! Learn more

10-Day Weather Forecast

Advertisements
Track Severe Weather on mobile